Time;durP1;ratioP1;P1;durP2;ratioP2;P2;SDS_P1;SDS_P2;PMS_P1;PMS_P2;Temp;Humidity;BMP_temperature;BMP_pressure;BME280_temperature;BME280_humidity;BME280_pressure;Samples;Min_cycle;Max_cycle;Signal;HPM_P1;HPM_P2
2021/10/18 00:00:58;;;;;;;4.50;4.20;;;;;16.60;98865.00;;;;7399369;19;20117;-92
2021/10/18 00:03:25;;;;;;;5.23;4.73;;;;;16.60;98870.00;;;;7399236;19;20473;-93
2021/10/18 00:05:52;;;;;;;4.73;4.33;;;;;16.60;98871.00;;;;7399545;19;20138;-93
2021/10/18 00:08:19;;;;;;;4.43;4.13;;;;;16.60;98868.00;;;;7400829;19;20170;-93
2021/10/18 00:10:46;;;;;;;4.40;4.10;;;;;16.60;98869.00;;;;7399150;19;20146;-93
2021/10/18 00:13:33;;;;;;;5.00;4.37;;;;;16.60;98870.00;;;;7399795;19;20125;-93
2021/10/18 00:16:00;;;;;;;4.70;4.40;;;;;16.60;98873.00;;;;7398965;19;20130;-93
2021/10/18 00:18:26;;;;;;;4.50;4.20;;;;;16.60;98880.00;;;;7398091;19;20115;-93
2021/10/18 00:20:54;;;;;;;4.80;4.40;;;;;16.60;98874.00;;;;7398964;19;20130;-93
2021/10/18 00:23:21;;;;;;;4.50;4.20;;;;;16.60;98881.00;;;;7398873;19;20122;-93
2021/10/18 00:25:50;;;;;;;4.60;4.20;;;;;16.60;98880.00;;;;7398755;19;20179;-93
2021/10/18 00:28:17;;;;;;;4.50;4.20;;;;;16.50;98879.00;;;;7398512;19;20129;-93
2021/10/18 00:30:44;;;;;;;4.50;4.13;;;;;16.60;98877.00;;;;7398690;19;20139;-92
2021/10/18 00:33:11;;;;;;;4.40;4.10;;;;;16.50;98867.00;;;;7399972;19;20126;-93
2021/10/18 00:35:37;;;;;;;4.60;4.27;;;;;16.50;98880.00;;;;7398321;19;20122;-93
2021/10/18 00:38:04;;;;;;;4.57;4.20;;;;;16.50;98887.00;;;;7398970;19;20118;-92
2021/10/18 00:40:31;;;;;;;4.17;3.87;;;;;16.50;98886.00;;;;7397919;19;20142;-92
2021/10/18 00:42:58;;;;;;;3.93;3.63;;;;;16.50;98877.00;;;;7398176;19;20175;-92
2021/10/18 00:45:25;;;;;;;4.73;4.33;;;;;16.50;98866.00;;;;7398304;19;20161;-92
2021/10/18 00:47:51;;;;;;;4.47;4.17;;;;;16.50;98862.00;;;;7398694;19;20156;-92
2021/10/18 00:50:18;;;;;;;4.57;4.27;;;;;16.50;98890.00;;;;7397973;19;20186;-92
2021/10/18 00:52:45;;;;;;;4.70;4.30;;;;;16.50;98877.00;;;;7399941;19;20111;-92
2021/10/18 00:55:13;;;;;;;4.40;4.00;;;;;16.50;98877.00;;;;7399948;19;20189;-92
2021/10/18 00:57:40;;;;;;;4.47;4.17;;;;;16.50;98873.00;;;;7397656;19;20143;-92
2021/10/18 01:00:08;;;;;;;4.57;4.17;;;;;16.50;98873.00;;;;7399860;19;20216;-92
2021/10/18 01:02:36;;;;;;;4.50;4.10;;;;;16.50;98872.00;;;;7405127;19;20547;-91
2021/10/18 01:05:05;;;;;;;4.30;4.00;;;;;16.40;98871.00;;;;7407174;19;20540;-92
2021/10/18 01:07:34;;;;;;;4.40;4.10;;;;;16.40;98855.00;;;;7406817;19;20121;-92
2021/10/18 01:10:00;;;;;;;4.33;4.03;;;;;16.40;98859.00;;;;7405733;19;20134;-92
2021/10/18 01:12:28;;;;;;;4.17;3.87;;;;;16.40;98854.00;;;;7405707;19;20129;-91
2021/10/18 01:14:54;;;;;;;4.63;4.23;;;;;16.40;98854.00;;;;7405214;19;20130;-92
2021/10/18 01:17:21;;;;;;;4.33;3.93;;;;;16.40;98856.00;;;;7405474;19;20130;-91
2021/10/18 01:19:51;;;;;;;4.47;4.07;;;;;16.40;98858.00;;;;7404542;19;20147;-91
2021/10/18 01:22:18;;;;;;;4.50;4.20;;;;;16.40;98856.00;;;;7404804;19;20140;-91
2021/10/18 01:24:45;;;;;;;4.47;4.17;;;;;16.40;98854.00;;;;7405057;19;20134;-91
2021/10/18 01:27:12;;;;;;;4.53;4.13;;;;;16.40;98855.00;;;;7404712;19;20146;-91
2021/10/18 01:29:40;;;;;;;4.63;4.33;;;;;16.40;98857.00;;;;7404201;19;20607;-91
2021/10/18 01:32:08;;;;;;;4.70;4.30;;;;;16.40;98859.00;;;;7404505;19;20205;-90
2021/10/18 01:34:35;;;;;;;4.60;4.30;;;;;16.40;98861.00;;;;7404197;19;20562;-90
2021/10/18 01:37:03;;;;;;;4.53;4.23;;;;;16.40;98861.00;;;;7404147;19;20452;-91
2021/10/18 01:39:30;;;;;;;4.57;4.20;;;;;16.40;98869.00;;;;7404116;19;20143;-91
2021/10/18 01:41:57;;;;;;;4.50;4.20;;;;;16.40;98861.00;;;;7405977;19;20126;-90
2021/10/18 01:44:23;;;;;;;4.50;4.20;;;;;16.40;98855.00;;;;7405711;19;20611;-90
2021/10/18 01:46:50;;;;;;;4.33;3.93;;;;;16.40;98854.00;;;;7403949;19;20174;-90
2021/10/18 01:49:17;;;;;;;4.87;4.47;;;;;16.40;98853.00;;;;7403781;19;20137;-90
2021/10/18 01:51:44;;;;;;;4.27;3.97;;;;;16.40;98850.00;;;;7404268;19;20129;-90
2021/10/18 01:54:11;;;;;;;4.33;4.00;;;;;16.30;98861.00;;;;7404205;19;20126;-90
2021/10/18 01:56:38;;;;;;;4.40;4.10;;;;;16.40;98856.00;;;;7403408;19;20190;-90
2021/10/18 01:59:05;;;;;;;4.80;4.40;;;;;16.40;98864.00;;;;7402887;19;20149;-90
2021/10/18 02:01:32;;;;;;;4.10;3.80;;;;;16.30;98867.00;;;;7405102;19;20131;-90
2021/10/18 02:03:59;;;;;;;4.37;4.07;;;;;16.30;98862.00;;;;7403497;19;20154;-90
2021/10/18 02:06:26;;;;;;;4.90;4.50;;;;;16.30;98861.00;;;;7403174;19;20126;-90
2021/10/18 02:08:52;;;;;;;4.77;4.37;;;;;16.30;98870.00;;;;7403131;19;20125;-90
2021/10/18 02:11:19;;;;;;;4.10;3.80;;;;;16.30;98862.00;;;;7403373;19;20144;-90
2021/10/18 02:13:46;;;;;;;4.27;3.97;;;;;16.30;98869.00;;;;7402983;19;20416;-90
2021/10/18 02:16:12;;;;;;;4.03;3.73;;;;;16.30;98876.00;;;;7403513;19;20123;-90
2021/10/18 02:18:39;;;;;;;4.40;4.10;;;;;16.30;98868.00;;;;7401823;19;20143;-90
2021/10/18 02:21:06;;;;;;;4.27;3.93;;;;;16.30;98867.00;;;;7404383;19;20129;-90
2021/10/18 02:23:32;;;;;;;4.57;4.17;;;;;16.30;98855.00;;;;7404382;19;20136;-90
2021/10/18 02:25:59;;;;;;;4.47;4.17;;;;;16.30;98858.00;;;;7404688;19;20149;-89
2021/10/18 02:28:26;;;;;;;4.77;4.40;;;;;16.30;98855.00;;;;7404952;19;20126;-90
2021/10/18 02:30:52;;;;;;;4.50;4.20;;;;;16.30;98869.00;;;;7402660;19;20148;-89
2021/10/18 02:33:19;;;;;;;4.53;4.20;;;;;16.30;98861.00;;;;7402261;19;20118;-89
2021/10/18 02:35:47;;;;;;;4.60;4.20;;;;;16.30;98855.00;;;;7402550;19;20579;-90
2021/10/18 02:38:13;;;;;;;4.60;4.20;;;;;16.30;98867.00;;;;7401340;19;20231;-89
2021/10/18 02:40:41;;;;;;;4.10;3.80;;;;;16.30;98855.00;;;;7402304;19;20544;-89
2021/10/18 02:43:08;;;;;;;4.40;4.10;;;;;16.30;98862.00;;;;7401801;19;20130;-89
2021/10/18 02:45:35;;;;;;;4.60;4.30;;;;;16.30;98853.00;;;;7402353;19;20435;-89
2021/10/18 02:48:02;;;;;;;4.20;3.90;;;;;16.30;98851.00;;;;7402083;19;20459;-89
2021/10/18 02:50:28;;;;;;;4.50;4.20;;;;;16.30;98861.00;;;;7403439;19;20122;-89
2021/10/18 02:52:55;;;;;;;4.50;4.10;;;;;16.30;98868.00;;;;7401838;19;20129;-89
2021/10/18 02:55:22;;;;;;;4.30;4.00;;;;;16.30;98861.00;;;;7401306;19;20559;-89
2021/10/18 02:57:51;;;;;;;4.03;3.73;;;;;16.30;98859.00;;;;7401685;19;20117;-90
2021/10/18 03:00:17;;;;;;;4.17;3.87;;;;;16.30;98862.00;;;;7402083;19;20158;-89
2021/10/18 03:02:44;;;;;;;3.83;3.53;;;;;16.30;98864.00;;;;7402897;19;20119;-89
2021/10/18 03:05:11;;;;;;;4.27;3.97;;;;;16.30;98873.00;;;;7401934;19;20166;-89
2021/10/18 03:07:38;;;;;;;4.10;3.80;;;;;16.30;98877.00;;;;7401568;19;20111;-89
2021/10/18 03:10:05;;;;;;;4.30;4.00;;;;;16.20;98881.00;;;;7401261;19;20457;-89
2021/10/18 03:12:33;;;;;;;4.13;3.83;;;;;16.30;98882.00;;;;7401105;19;20424;-89
2021/10/18 03:15:03;;;;;;;4.27;3.97;;;;;16.20;98877.00;;;;7401091;19;20130;-89
2021/10/18 03:17:29;;;;;;;4.30;4.00;;;;;16.20;98880.00;;;;7400731;19;20152;-89
2021/10/18 03:19:56;;;;;;;4.23;3.93;;;;;16.20;98878.00;;;;7398697;19;20143;-89
2021/10/18 03:22:23;;;;;;;4.10;3.80;;;;;16.20;98875.00;;;;7400840;19;20456;-88
2021/10/18 03:24:49;;;;;;;4.53;4.23;;;;;16.20;98877.00;;;;7401172;19;20133;-89
2021/10/18 03:27:16;;;;;;;4.27;3.87;;;;;16.20;98873.00;;;;7400521;19;20137;-88
2021/10/18 03:29:43;;;;;;;4.43;4.13;;;;;16.20;98883.00;;;;7400447;19;20122;-89
2021/10/18 03:32:09;;;;;;;3.97;3.67;;;;;16.20;98874.00;;;;7400558;19;20564;-89
2021/10/18 03:34:36;;;;;;;4.20;3.90;;;;;16.20;98889.00;;;;7400206;19;20114;-89
2021/10/18 03:37:03;;;;;;;4.00;3.70;;;;;16.20;98892.00;;;;7400413;19;20452;-89
2021/10/18 03:39:29;;;;;;;3.87;3.57;;;;;16.20;98892.00;;;;7399138;19;20121;-89
2021/10/18 03:41:56;;;;;;;4.33;4.03;;;;;16.20;98895.00;;;;7401215;19;20131;-89
2021/10/18 03:44:23;;;;;;;4.20;3.90;;;;;16.20;98885.00;;;;7401679;19;20131;-89
2021/10/18 03:46:50;;;;;;;4.23;3.93;;;;;16.20;98886.00;;;;7401047;19;20588;-88
2021/10/18 03:49:16;;;;;;;3.87;3.57;;;;;16.20;98891.00;;;;7400950;19;20138;-89
2021/10/18 03:51:43;;;;;;;3.70;3.40;;;;;16.20;98899.00;;;;7403204;19;20129;-88
2021/10/18 03:54:10;;;;;;;4.07;3.77;;;;;16.20;98897.00;;;;7400647;19;20448;-89
2021/10/18 03:56:36;;;;;;;4.63;4.30;;;;;16.20;98889.00;;;;7401127;19;20119;-88
2021/10/18 03:59:03;;;;;;;4.23;3.93;;;;;16.20;98911.00;;;;7400179;19;20157;-89
2021/10/18 04:01:30;;;;;;;4.10;3.80;;;;;16.20;98909.00;;;;7402214;19;20155;-88
2021/10/18 04:03:57;;;;;;;4.00;3.70;;;;;16.20;98901.00;;;;7401733;19;20107;-88
2021/10/18 04:06:23;;;;;;;4.63;4.17;;;;;16.20;98900.00;;;;7403560;19;20129;-88
2021/10/18 04:08:52;;;;;;;4.07;3.77;;;;;16.20;98906.00;;;;7401814;19;20141;-88
2021/10/18 04:11:18;;;;;;;4.20;3.80;;;;;16.20;98910.00;;;;7403062;19;20149;-88
2021/10/18 04:13:45;;;;;;;4.43;4.10;;;;;16.20;98910.00;;;;7402915;19;20118;-88
2021/10/18 04:16:15;;;;;;;4.33;3.93;;;;;16.20;98915.00;;;;7404069;19;20200;-89
2021/10/18 04:18:42;;;;;;;4.07;3.77;;;;;16.10;98927.00;;;;7401230;19;20153;-89
2021/10/18 04:21:08;;;;;;;4.20;3.90;;;;;16.10;98930.00;;;;7402070;19;20134;-89
2021/10/18 04:23:35;;;;;;;3.77;3.47;;;;;16.10;98930.00;;;;7402621;19;20139;-89
2021/10/18 04:26:02;;;;;;;4.10;3.80;;;;;16.10;98936.00;;;;7403278;19;20134;-89
2021/10/18 04:28:28;;;;;;;4.20;3.90;;;;;16.10;98936.00;;;;7402156;19;20107;-89
2021/10/18 04:30:56;;;;;;;3.70;3.50;;;;;16.10;98931.00;;;;7405286;19;20151;-89
2021/10/18 04:33:23;;;;;;;4.13;3.83;;;;;16.10;98931.00;;;;7404222;19;20163;-88
2021/10/18 04:35:50;;;;;;;4.10;3.80;;;;;16.10;98938.00;;;;7397776;19;20158;-88
2021/10/18 04:38:17;;;;;;;4.00;3.70;;;;;16.10;98938.00;;;;7398131;19;20118;-89
2021/10/18 04:40:43;;;;;;;4.10;3.80;;;;;16.10;98940.00;;;;7400126;19;20126;-89
2021/10/18 04:43:10;;;;;;;4.40;4.10;;;;;16.10;98942.00;;;;7400638;19;20423;-88
2021/10/18 04:45:37;;;;;;;3.80;3.50;;;;;16.10;98938.00;;;;7400209;19;20133;-88
2021/10/18 04:48:04;;;;;;;3.93;3.63;;;;;16.10;98943.00;;;;7398238;19;20131;-88
2021/10/18 04:50:32;;;;;;;3.57;3.33;;;;;16.10;98946.00;;;;7400027;19;20147;-89
2021/10/18 04:52:59;;;;;;;3.77;3.53;;;;;16.10;98943.00;;;;7398645;19;20155;-89
2021/10/18 04:55:26;;;;;;;4.13;3.83;;;;;16.10;98940.00;;;;7399799;19;20119;-89
2021/10/18 04:58:04;;;;;;;4.13;3.83;;;;;16.10;98944.00;;;;7398671;19;20131;-87
2021/10/18 05:00:36;;;;;;;4.00;3.70;;;;;16.10;98950.00;;;;7399661;19;20121;-88
2021/10/18 05:03:03;;;;;;;4.10;3.80;;;;;16.10;98946.00;;;;7400226;19;20518;-88
2021/10/18 05:05:31;;;;;;;3.37;3.17;;;;;16.10;98955.00;;;;7399569;19;20129;-88
2021/10/18 05:08:18;;;;;;;4.10;3.80;;;;;16.10;98951.00;;;;7397711;19;20568;-88
2021/10/18 05:10:46;;;;;;;3.30;3.10;;;;;16.10;98959.00;;;;7397896;19;20556;-88
2021/10/18 05:13:15;;;;;;;3.57;3.27;;;;;16.10;98962.00;;;;7399445;19;20140;-88
2021/10/18 05:15:42;;;;;;;3.90;3.60;;;;;16.10;98958.00;;;;7397524;19;20436;-88
2021/10/18 05:18:09;;;;;;;4.03;3.73;;;;;16.10;98966.00;;;;7398191;19;20131;-88
2021/10/18 05:20:35;;;;;;;4.00;3.70;;;;;16.10;98965.00;;;;7397987;19;20122;-88
2021/10/18 05:23:03;;;;;;;4.07;3.77;;;;;16.10;98971.00;;;;7398642;19;20135;-88
2021/10/18 05:25:30;;;;;;;3.43;3.23;;;;;16.10;98972.00;;;;7398170;19;20127;-88
2021/10/18 05:27:57;;;;;;;3.80;3.50;;;;;16.20;98969.00;;;;7398935;19;20126;-88
2021/10/18 05:30:26;;;;;;;3.83;3.57;;;;;16.20;98977.00;;;;7397677;19;20123;-88
2021/10/18 05:32:54;;;;;;;3.57;3.37;;;;;16.20;98976.00;;;;7398725;19;20551;-88
2021/10/18 05:35:21;;;;;;;3.73;3.43;;;;;16.20;98972.00;;;;7399104;19;20126;-88
2021/10/18 05:37:49;;;;;;;3.43;3.20;;;;;16.20;98978.00;;;;7397700;19;20146;-87
2021/10/18 05:40:17;;;;;;;3.60;3.40;;;;;16.30;98976.00;;;;7396132;19;20117;-87
2021/10/18 05:42:44;;;;;;;4.00;3.70;;;;;16.30;98975.00;;;;7398468;19;20587;-87
2021/10/18 05:45:11;;;;;;;4.17;3.80;;;;;16.40;98970.00;;;;7398649;19;20134;-87
2021/10/18 05:47:58;;;;;;;3.60;3.40;;;;;16.40;98983.00;;;;7399920;19;20133;-87
2021/10/18 05:50:29;;;;;;;3.87;3.57;;;;;16.40;98975.00;;;;7406312;19;20439;-87
2021/10/18 05:52:56;;;;;;;3.43;3.23;;;;;16.40;98969.00;;;;7405721;19;20186;-87
2021/10/18 05:55:23;;;;;;;3.43;3.23;;;;;16.40;98973.00;;;;7405752;19;20137;-88
2021/10/18 05:57:57;;;;;;;3.80;3.50;;;;;16.50;98968.00;;;;7405561;19;20166;-88
2021/10/18 06:00:25;;;;;;;3.87;3.57;;;;;16.50;98973.00;;;;7403141;19;20555;-88
2021/10/18 06:02:52;;;;;;;3.10;2.90;;;;;16.50;98972.00;;;;7403753;19;20138;-86
2021/10/18 06:05:20;;;;;;;4.03;3.73;;;;;16.50;98988.00;;;;7403257;19;20451;-87
2021/10/18 06:07:47;;;;;;;3.53;3.33;;;;;16.60;98972.00;;;;7405268;19;20545;-88
2021/10/18 06:10:15;;;;;;;3.97;3.67;;;;;16.60;98978.00;;;;7403418;19;20126;-87
2021/10/18 06:12:42;;;;;;;3.40;3.20;;;;;16.60;98974.00;;;;7408240;19;20142;-88
2021/10/18 06:15:10;;;;;;;3.60;3.30;;;;;16.70;98992.00;;;;7409075;19;20122;-88
2021/10/18 06:17:38;;;;;;;3.47;3.27;;;;;16.80;98991.00;;;;7406650;19;20117;-88
2021/10/18 06:20:05;;;;;;;3.73;3.20;;;;;16.80;98988.00;;;;7402119;19;20110;-87
2021/10/18 06:22:32;;;;;;;3.20;3.00;;;;;16.80;98990.00;;;;7405478;19;20118;-87
2021/10/18 06:24:59;;;;;;;3.60;3.30;;;;;16.80;98993.00;;;;7405062;19;20159;-87
2021/10/18 06:27:26;;;;;;;3.50;3.20;;;;;16.90;98999.00;;;;7402688;19;20448;-87
2021/10/18 06:29:52;;;;;;;3.53;3.13;;;;;16.90;99011.00;;;;7402820;19;20126;-88
2021/10/18 06:32:19;;;;;;;3.43;3.23;;;;;16.90;99012.00;;;;7405176;19;20150;-87
2021/10/18 06:34:46;;;;;;;3.70;3.40;;;;;16.90;99008.00;;;;7404684;19;20126;-87
2021/10/18 06:37:12;;;;;;;3.90;3.60;;;;;16.90;99011.00;;;;7402185;19;20142;-87
2021/10/18 06:39:39;;;;;;;4.23;2.90;;;;;16.90;99004.00;;;;7401682;19;20161;-87
2021/10/18 06:42:06;;;;;;;3.13;2.93;;;;;16.90;99011.00;;;;7404596;19;20117;-86
2021/10/18 06:44:33;;;;;;;4.00;3.70;;;;;17.00;99005.00;;;;7402404;19;20457;-87
2021/10/18 06:46:59;;;;;;;3.50;3.20;;;;;17.00;99015.00;;;;7402528;19;20244;-87
2021/10/18 06:49:26;;;;;;;3.90;3.50;;;;;17.00;99017.00;;;;7402299;19;20127;-87
2021/10/18 06:51:55;;;;;;;3.50;3.20;;;;;16.90;99012.00;;;;7402817;19;20114;-86
2021/10/18 06:54:22;;;;;;;3.77;3.47;;;;;17.00;99019.00;;;;7404677;19;20149;-87
2021/10/18 06:56:51;;;;;;;3.63;3.10;;;;;17.00;99021.00;;;;7401993;19;20121;-87
2021/10/18 06:59:18;;;;;;;3.87;3.57;;;;;17.00;99011.00;;;;7403087;19;20155;-86
2021/10/18 07:01:45;;;;;;;3.53;3.33;;;;;17.10;99018.00;;;;7403419;19;20119;-86
2021/10/18 07:04:13;;;;;;;3.33;3.13;;;;;17.10;99029.00;;;;7401068;19;20126;-86
2021/10/18 07:06:39;;;;;;;3.97;3.63;;;;;17.10;99033.00;;;;7403445;19;20127;-86
2021/10/18 07:09:06;;;;;;;3.67;3.37;;;;;17.10;99040.00;;;;7404701;19;20106;-87
2021/10/18 07:11:32;;;;;;;3.70;3.40;;;;;17.10;99035.00;;;;7404272;19;20115;-88
2021/10/18 07:13:59;;;;;;;3.53;3.23;;;;;17.10;99036.00;;;;7400965;19;20134;-86
2021/10/18 07:16:26;;;;;;;3.70;3.40;;;;;17.10;99047.00;;;;7402336;19;20181;-86
2021/10/18 07:18:52;;;;;;;3.50;3.23;;;;;17.10;99052.00;;;;7401648;19;20163;-86
2021/10/18 07:21:19;;;;;;;3.40;3.20;;;;;17.10;99053.00;;;;7402628;19;20121;-86
2021/10/18 07:23:51;;;;;;;3.63;3.33;;;;;17.10;99055.00;;;;7401641;19;20130;-86
2021/10/18 07:26:19;;;;;;;3.50;3.30;;;;;17.10;99060.00;;;;7402305;19;20446;-87
2021/10/18 07:28:45;;;;;;;3.53;3.23;;;;;17.10;99052.00;;;;7402758;19;20162;-87
2021/10/18 07:31:12;;;;;;;3.73;3.43;;;;;17.10;99060.00;;;;7402639;19;20439;-87
2021/10/18 07:33:39;;;;;;;3.60;3.30;;;;;17.10;99056.00;;;;7401074;19;20127;-87
2021/10/18 07:36:11;;;;;;;4.47;4.07;;;;;17.10;99068.00;;;;7403220;19;20151;-87
2021/10/18 07:38:39;;;;;;;4.10;3.70;;;;;17.10;99063.00;;;;7405630;19;20133;-87
2021/10/18 07:41:06;;;;;;;4.17;3.77;;;;;17.10;99058.00;;;;7399637;19;20156;-86
2021/10/18 07:43:33;;;;;;;3.83;3.53;;;;;17.20;99058.00;;;;7405285;19;20160;-86
2021/10/18 07:46:00;;;;;;;3.80;3.50;;;;;17.20;99062.00;;;;7400211;19;20134;-87
2021/10/18 07:48:26;;;;;;;4.40;4.00;;;;;17.20;99057.00;;;;7398579;19;20469;-87
2021/10/18 07:50:53;;;;;;;4.10;3.70;;;;;17.10;99057.00;;;;7398665;19;20123;-87
2021/10/18 07:53:20;;;;;;;4.90;4.17;;;;;17.10;99059.00;;;;7400181;19;20138;-87
2021/10/18 07:55:47;;;;;;;4.13;3.73;;;;;17.10;99059.00;;;;7399962;19;20167;-87
2021/10/18 07:58:20;;;;;;;3.87;3.50;;;;;17.10;99052.00;;;;7402291;19;20111;-87
2021/10/18 08:00:48;;;;;;;3.80;3.50;;;;;17.10;99052.00;;;;7398279;19;20143;-87
2021/10/18 08:03:15;;;;;;;5.13;4.20;;;;;17.10;99064.00;;;;7399457;19;20122;-87
2021/10/18 08:05:42;;;;;;;4.27;3.93;;;;;17.10;99066.00;;;;7399949;19;20127;-87
2021/10/18 08:08:10;;;;;;;4.00;3.70;;;;;17.10;99059.00;;;;7399444;19;20119;-87
2021/10/18 08:10:37;;;;;;;4.03;3.63;;;;;17.10;99059.00;;;;7397978;19;20151;-87
2021/10/18 08:13:04;;;;;;;4.03;3.73;;;;;17.10;99065.00;;;;7399058;19;20129;-87
2021/10/18 08:15:31;;;;;;;3.73;3.43;;;;;17.10;99067.00;;;;7399263;19;20491;-87
2021/10/18 08:17:58;;;;;;;3.73;3.43;;;;;17.20;99063.00;;;;7399486;19;20420;-88
2021/10/18 08:20:25;;;;;;;4.30;3.90;;;;;17.20;99062.00;;;;7404476;19;20155;-88
2021/10/18 08:22:52;;;;;;;3.57;3.27;;;;;17.20;99060.00;;;;7404538;19;20126;-90
2021/10/18 08:25:19;;;;;;;4.03;3.73;;;;;17.20;99067.00;;;;7406847;19;20131;-89
2021/10/18 08:27:46;;;;;;;4.33;3.93;;;;;17.20;99058.00;;;;7404535;19;20151;-88
2021/10/18 08:30:16;;;;;;;4.20;3.80;;;;;17.20;99068.00;;;;7405808;19;20152;-89
2021/10/18 08:32:42;;;;;;;3.87;3.57;;;;;17.20;99068.00;;;;7409350;19;20123;-88
2021/10/18 08:35:11;;;;;;;3.90;3.60;;;;;17.20;99066.00;;;;7398828;19;20131;-88
2021/10/18 08:41:08;;;;;;;4.00;3.70;;;;;17.20;99073.00;;;;7397467;19;20505;-89
2021/10/18 08:45:54;;;;;;;4.10;3.80;;;;;17.20;99077.00;;;;7400486;19;20129;-89
2021/10/18 08:48:48;;;;;;;4.00;3.70;;;;;17.20;99075.00;;;;7398672;19;20131;-88
2021/10/18 08:51:15;;;;;;;3.37;3.10;;;;;17.20;99075.00;;;;7398505;19;20118;-90
2021/10/18 08:53:42;;;;;;;3.93;3.60;;;;;17.20;99077.00;;;;7398164;19;20126;-89
2021/10/18 08:56:09;;;;;;;4.20;3.90;;;;;17.30;99080.00;;;;7398074;19;20131;-89
2021/10/18 08:58:35;;;;;;;4.07;3.67;;;;;17.20;99075.00;;;;7398592;19;20123;-89
2021/10/18 09:01:02;;;;;;;3.77;3.47;;;;;17.30;99090.00;;;;7398037;19;20137;-90
2021/10/18 09:03:32;;;;;;;4.37;3.47;;;;;17.30;99098.00;;;;7399845;19;20592;-89
2021/10/18 09:06:08;;;;;;;3.43;3.13;;;;;17.30;99091.00;;;;7398483;19;20126;-90
2021/10/18 09:08:37;;;;;;;3.60;3.30;;;;;17.30;99096.00;;;;7397623;19;20193;-89
2021/10/18 09:11:08;;;;;;;3.70;3.40;;;;;17.30;99088.00;;;;7399661;19;20152;-89
2021/10/18 09:13:36;;;;;;;4.00;3.60;;;;;17.30;99084.00;;;;7399844;19;20130;-90
2021/10/18 09:16:03;;;;;;;3.47;3.20;;;;;17.30;99079.00;;;;7398094;19;20123;-90
2021/10/18 09:18:31;;;;;;;3.50;3.20;;;;;17.30;99085.00;;;;7398261;19;20183;-89
2021/10/18 09:20:57;;;;;;;3.80;3.50;;;;;17.30;99081.00;;;;7397551;19;20544;-89
2021/10/18 09:23:29;;;;;;;3.80;3.50;;;;;17.30;99086.00;;;;7406803;19;20137;-90
2021/10/18 09:26:08;;;;;;;3.40;3.20;;;;;17.30;99087.00;;;;7404688;19;20560;-89
2021/10/18 09:28:36;;;;;;;3.40;3.10;;;;;17.30;99081.00;;;;7405250;19;20466;-90
2021/10/18 09:31:03;;;;;;;3.87;3.57;;;;;17.40;99087.00;;;;7404653;19;20141;-90
2021/10/18 09:36:02;;;;;;;3.57;3.27;;;;;17.40;99091.00;;;;7406049;19;20676;-90
2021/10/18 09:38:28;;;;;;;3.50;3.20;;;;;17.40;99076.00;;;;7406419;19;20166;-90
2021/10/18 09:40:58;;;;;;;3.70;3.40;;;;;17.40;99090.00;;;;7403818;19;20134;-90
2021/10/18 09:43:44;;;;;;;3.30;3.10;;;;;17.40;99104.00;;;;7404824;19;20133;-91
2021/10/18 09:46:36;;;;;;;3.43;3.13;;;;;17.40;99092.00;;;;7404593;19;20122;-90
2021/10/18 10:52:11;;;;;;;3.40;3.17;;;;;17.30;99080.00;;;;7404669;19;20133;-89
2021/10/18 10:54:41;;;;;;;3.37;3.07;;;;;17.30;99084.00;;;;7403994;19;20459;-89
2021/10/18 10:57:12;;;;;;;3.30;3.10;;;;;17.30;99081.00;;;;7401848;19;20446;-89
2021/10/18 10:59:53;;;;;;;3.10;2.90;;;;;17.30;99072.00;;;;7401438;19;20123;-90
2021/10/18 11:02:29;;;;;;;3.40;3.20;;;;;17.30;99072.00;;;;7401637;19;20130;-89
2021/10/18 11:04:56;;;;;;;3.27;3.07;;;;;17.30;99066.00;;;;7401479;19;20137;-89
2021/10/18 11:07:34;;;;;;;3.20;3.00;;;;;17.30;99061.00;;;;7401324;19;20458;-90
2021/10/18 11:10:03;;;;;;;3.60;3.30;;;;;17.20;99060.00;;;;7401388;19;20458;-89
2021/10/18 11:12:40;;;;;;;3.07;2.87;;;;;17.20;99072.00;;;;7404123;19;20425;-89
2021/10/18 11:15:09;;;;;;;4.50;3.10;;;;;17.20;99070.00;;;;7401348;19;20122;-89
2021/10/18 11:17:45;;;;;;;4.50;3.17;;;;;17.20;99063.00;;;;7400780;19;20449;-90
2021/10/18 11:20:15;;;;;;;3.17;2.97;;;;;17.20;99068.00;;;;7400761;19;20122;-90
2021/10/18 11:22:45;;;;;;;3.50;3.20;;;;;17.20;99050.00;;;;7400703;19;20122;-91
2021/10/18 11:25:13;;;;;;;3.57;3.30;;;;;17.20;99053.00;;;;7402764;19;20418;-90
2021/10/18 11:27:43;;;;;;;6.03;4.83;;;;;17.20;99047.00;;;;7401025;19;20187;-88
2021/10/18 11:30:12;;;;;;;10.33;7.33;;;;;17.20;99042.00;;;;7401056;19;20122;-89
2021/10/18 11:32:40;;;;;;;12.10;8.57;;;;;17.10;99036.00;;;;7402748;19;20118;-87
2021/10/18 11:35:18;;;;;;;9.80;8.40;;;;;17.10;99033.00;;;;7400813;19;20127;-90
2021/10/18 11:38:10;;;;;;;13.90;8.47;;;;;17.10;99024.00;;;;7399865;19;20177;-88
2021/10/18 11:40:49;;;;;;;16.57;10.87;;;;;17.10;99029.00;;;;7399352;19;20143;-88
2021/10/18 11:43:24;;;;;;;24.23;16.13;;;;;17.10;99039.00;;;;7399887;19;20130;-87
2021/10/18 11:45:53;;;;;;;21.83;15.30;;;;;17.10;99028.00;;;;7399045;19;20122;-90
2021/10/18 11:48:25;;;;;;;27.93;17.73;;;;;17.20;99025.00;;;;7399904;19;20427;-91
2021/10/18 11:50:55;;;;;;;36.67;20.97;;;;;17.20;99031.00;;;;7401998;19;20127;-90
2021/10/18 11:53:23;;;;;;;38.17;22.50;;;;;17.30;99024.00;;;;7399802;19;20569;-91
2021/10/18 11:55:55;;;;;;;36.50;21.03;;;;;17.40;99040.00;;;;7400278;19;20159;-90
2021/10/18 11:58:42;;;;;;;33.70;19.23;;;;;17.50;99030.00;;;;7399590;19;20126;-89
2021/10/18 12:01:11;;;;;;;32.27;18.30;;;;;17.60;99018.00;;;;7400636;19;20114;-90
2021/10/18 12:03:38;;;;;;;30.70;18.53;;;;;17.60;99012.00;;;;7400186;19;20119;-90
2021/10/18 12:06:07;;;;;;;33.03;18.60;;;;;17.70;99003.00;;;;7398972;19;20576;-90
2021/10/18 12:08:35;;;;;;;29.73;17.13;;;;;17.70;99002.00;;;;7400625;19;20145;-90
2021/10/18 12:11:07;;;;;;;29.77;17.63;;;;;17.70;99004.00;;;;7398508;19;20139;-89
2021/10/18 12:13:41;;;;;;;26.43;15.80;;;;;17.70;99001.00;;;;7399602;19;20117;-90
2021/10/18 12:16:22;;;;;;;25.13;16.10;;;;;17.60;99002.00;;;;7399753;19;20141;-89
2021/10/18 12:18:56;;;;;;;28.03;16.10;;;;;17.60;99000.00;;;;7399749;19;20178;-90
2021/10/18 12:21:25;;;;;;;25.17;15.97;;;;;17.60;98993.00;;;;7398817;19;20128;-89
2021/10/18 12:23:57;;;;;;;25.47;15.23;;;;;17.60;98990.00;;;;7399238;19;20485;-89
2021/10/18 12:26:26;;;;;;;24.67;14.77;;;;;17.60;98991.00;;;;7399753;19;20139;-90
2021/10/18 12:28:56;;;;;;;23.33;14.67;;;;;17.70;98993.00;;;;7398461;19;20129;-90
2021/10/18 12:31:24;;;;;;;23.67;15.20;;;;;17.70;98996.00;;;;7400848;19;20146;-89
2021/10/18 12:34:07;;;;;;;25.67;15.43;;;;;17.70;98999.00;;;;7400235;19;20135;-90
2021/10/18 12:36:56;;;;;;;25.13;14.37;;;;;17.70;98996.00;;;;7398573;19;20141;-90
2021/10/18 12:39:38;;;;;;;21.57;14.27;;;;;17.70;98989.00;;;;7400496;19;20122;-89
2021/10/18 12:42:13;;;;;;;23.53;14.47;;;;;17.60;98995.00;;;;7399888;19;20115;-89
2021/10/18 12:44:45;;;;;;;22.30;14.40;;;;;17.60;98997.00;;;;7399336;19;20427;-89
2021/10/18 12:47:20;;;;;;;24.37;14.67;;;;;17.60;98980.00;;;;7399563;19;20152;-89
2021/10/18 12:49:52;;;;;;;19.33;12.60;;;;;17.50;98981.00;;;;7401336;19;20130;-89
2021/10/18 12:52:29;;;;;;;23.53;14.13;;;;;17.50;98963.00;;;;7398922;19;20172;-89
2021/10/18 12:54:57;;;;;;;21.20;13.60;;;;;17.50;98968.00;;;;7399464;19;20137;-89
2021/10/18 12:57:26;;;;;;;21.23;13.20;;;;;17.50;98968.00;;;;7389383;19;20158;-89
2021/10/18 13:00:05;;;;;;;22.00;13.27;;;;;17.60;98966.00;;;;7407093;19;20586;-89
2021/10/18 13:02:34;;;;;;;23.37;13.17;;;;;17.60;98969.00;;;;7412763;19;20134;-89
2021/10/18 13:05:11;;;;;;;22.37;13.60;;;;;17.70;98969.00;;;;7408777;19;20111;-89
2021/10/18 13:07:50;;;;;;;18.90;11.87;;;;;17.70;98962.00;;;;7402472;19;20185;-89
2021/10/18 13:10:18;;;;;;;19.87;13.17;;;;;17.70;98967.00;;;;7408290;19;20144;-90
2021/10/18 13:12:46;;;;;;;18.20;12.63;;;;;17.70;98978.00;;;;7408060;19;20545;-89
2021/10/18 13:15:15;;;;;;;19.87;12.70;;;;;17.70;98967.00;;;;7415177;19;20411;-88
2021/10/18 13:17:42;;;;;;;19.97;12.77;;;;;17.80;98972.00;;;;7407786;19;20137;-89
2021/10/18 13:20:11;;;;;;;20.47;12.70;;;;;17.80;98960.00;;;;7409250;19;20141;-88
2021/10/18 13:22:38;;;;;;;18.17;12.07;;;;;17.80;98966.00;;;;7405132;19;20127;-89
2021/10/18 13:25:06;;;;;;;19.23;12.43;;;;;17.80;98972.00;;;;7408725;19;20144;-89
2021/10/18 13:27:36;;;;;;;18.87;12.00;;;;;17.80;98967.00;;;;7410363;19;20139;-88
2021/10/18 13:30:04;;;;;;;18.00;11.63;;;;;17.80;98962.00;;;;7409500;19;20190;-89
2021/10/18 13:32:44;;;;;;;18.73;11.90;;;;;17.80;98953.00;;;;7411256;19;20533;-88